Notice: Undefined index: station in /home3/dimtiris/public_html/webApp/metar/index.php on line 4

Metar

Weather conditions for all airports of the world. Just type the ICAO code of an airport.

LGAV 011150Z 05015KT CAVOK 25/09 Q1021 NOSIG

STATION LGAV
OBSERVED Wed Oct 1, 05:50 MDT
NOW Wed Oct 1, 06:12 MDT
AGE 22 min ago
WIND NE at 17 mph
VISIBILITY greater than 7 miles
CONDITIONS
CLOUDS clear skies
TEMP 77°F (25°C)
DEWPT 48°F (9°C)
HUMIDITY 36%
BAROMETER 1021 hPa (30.15 in Hg)

Get weather info from other station:

Some ICAO codes to try: